Latest METARs, TAFs and NOTAMs for EGWU


---------------------------------------------------------------------------
	(OBSERVATIONS)
EGWU 171350Z 21010KT 9999 SCT030 BKN250 15/08 Q1014 BLU TEMPO
    SCT022 WHT=
EGWU 171320Z NIL=
EGWU 171250Z 22012KT 9999 FEW032 SCT250 15/06 Q1014 BLU TEMPO
    SCT020 WHT=
EGWU 171220Z NIL=
EGWU 171150Z 21014KT CAVOK 13/06 Q1014 BLU NOSIG=
EGWU 171120Z NIL=
---------------------------------------------------------------------------
	(FC)
Sorry, FC For EGWU Not Found
---------------------------------------------------------------------------
	(TERMINAL AREA FORECAST)
EGWU 171338Z 1715/1809 19010KT 9999 FEW020 SCT025
    TEMPO 1715/1722 BKN018
    PROB40 TEMPO 1715/1722 SCT012
    PROB30 TEMPO 1718/1722 7000 -RADZ
    PROB30 TEMPO 1807/1809 6000 BR SCT007=
---------------------------------------------------------------------------
	(NOTAMS)


EGWU U0243/19 AD CLSD TO CIVIL ACFT, MIL VIA PPR ONLY, CAT A,
    B, C AND D EXEMPT. TUE-FRI 1700-2000, SAT 0800-1500, SUN
    1200-1900, 12 FEB 17:00 2019 UNTIL 17 FEB 19:00 2019. CREATED:
    17 JAN 20:06 2019

EGWU U0303/19 RAF NORTHOLTS SID PUBLISHED IN THE CIVIL AIP ARE
    INCORRECT. THE UPDATED SID ARE AVAILABLE IN THE MIL AIP.
    FOR ACCESS GO TO WWW.AIDU.MOD.UK/MILFLIP/INDEX.PHP AND SELECT
    THE UK MIL AIP TAB IN THE CENTRE OF THE PAGE. 23 JAN 12:12
    2019 UNTIL 23 APR 23:59 2019. CREATED: 23 JAN 12:30 2019

EGWU U0304/19 DUE TO RECENT SID CHANGES, THE FOLLOWING APPLY
    TO NORTHOLT BUZAD, MATCH, DETLING AND COMPTON SID: RWY 25
    - MINIMUM CLIMB GRADIENT OF 5.5 PERCENT TO 710FT AND 10.6
    PERCENT (10.3 PERCENT BUZAD) TO 3000FT RWY 07 - MINIMUM CLIMB
    GRADIENT OF 3.9 PERCENT TO 810FT AND 13.2 PERCENT TO 3000FT.
    CLIMB AHEAD TO 3000FT, PASSING 700FT, LEFT AND INTERCEPT
    OCK 009R. THE FOLLOWING CHANGES APPLY TO NORTHOLT NON-AIRWAYS
    SID: CHARLIE - AT LON 8.9D TURN LEFT ON BPK 214R TO CHARLIE.
    ROMEO - MINIMUM CLIMB GRADIENT FOR OBSTACLE CLEARANCE: 5.5
    PERCENT TO 710FT. 23 JAN 12:19 2019 UNTIL 23 APR 23:59 2019.
    CREATED: 23 JAN 12:31 2019

EGWU U0643/19 HEL PAD SOUTH IS CLOSED TO ROTARY AIRCRAFT. 25
    FEB 08:00 2019 UNTIL 25 MAY 23:59 2019. CREATED: 14 FEB 14:20
    2019

EGWU U0668/19 THE MATCH AND DETLING SID MUST UTILISE GPS OVERLAYS.
    CHARLIE DEPARTURES WILL REQUIRE RADAR VECTORS DUE BPK VOR
    ON MAINTENANCE. 22 FEB 10:00 2019 UNTIL 22 FEB 14:00 2019.
    CREATED: 15 FEB 12:53 2019

EGWU U0669/19 THE MATCH 1Y, COMPTON 4Y AND DETLING 4Y SID MUST
    UTILISE LATITUDE/LONGITUDE OR GPS OVERLAYS DUE CHT NDB ON
    MAINTENANCE. 22 FEB 10:00 2019 UNTIL 22 FEB 14:00 2019. CREATED:
    15 FEB 12:54 2019

EGWU U0676/19 AD CLSD TO CIVIL ACFT, MIL VIA PPR ONLY, CAT A,B,C
    AND D EXEMPT. MON-FRI 1700-2000, SAT 0800-1500, SUN 1200-1900,
    18 FEB 17:00 2019 UNTIL 24 FEB 19:00 2019. CREATED: 15 FEB
    13:53 2019

EGWU U3826/16 ALL USERS OF RAF NORTHOLT MUST COMPLY WITH THE
    DEFENCE AERODROME MANUAL. 18 NOV 06:00 2016 UNTIL PERM. CREATED:
    18 NOV 06:07 2016

EGWU U5509/18 AMEND MINIMAS AS FOLLOWS: VMC (A) 630 (510) TO
    660 (540) LNAV 07 580 (470) TO 610 (500) PAR 07 MINIMA INCREASED
    AS FOLLOWS: CAT A 470 (350) TO 500 (380) CAT B 480 (360)
    TO 510 (390) CAT C 490 (370) TO 520 (400) CAT D 500 (380)
    TO 530 (410) DUE TO CRANE AT PSN 513235N 0002750W. 17 DEC
    11:29 2018 UNTIL 28 FEB 23:59 2019. CREATED: 17 DEC 12:11
    2018

EGWU U5589/18 CRANE OPR PSN 513235N 0002750W (UXBRIDGE) HEIGHT
    207FT AGL / 363FT AMSL. CRANE PENETRATES THE INNER HORIZONTAL
    SURFACE AND RWY 07 APPROACH AND RWY 25 TAKE-OFF CLIMB SURFACES.
    20 DEC 15:31 2018 UNTIL 28 FEB 23:59 2019. CREATED: 20 DEC
    15:37 2018

---------------------------------------------------------------------------